sensor_id;sensor_type;location;lat;lon;timestamp;temperature;humidity
5346;DHT22;2695;49.444;11.054;2023-05-27T00:01:52;17.30;62.10
5346;DHT22;2695;49.444;11.054;2023-05-27T00:04:20;17.30;61.80
5346;DHT22;2695;49.444;11.054;2023-05-27T00:06:48;17.20;62.10
5346;DHT22;2695;49.444;11.054;2023-05-27T00:09:16;17.20;62.60
5346;DHT22;2695;49.444;11.054;2023-05-27T00:11:44;17.20;62.60
5346;DHT22;2695;49.444;11.054;2023-05-27T00:14:12;17.10;62.50
5346;DHT22;2695;49.444;11.054;2023-05-27T00:16:42;17.10;62.50
5346;DHT22;2695;49.444;11.054;2023-05-27T00:19:10;17.00;62.50
5346;DHT22;2695;49.444;11.054;2023-05-27T00:21:38;16.80;62.40
5346;DHT22;2695;49.444;11.054;2023-05-27T00:24:06;16.90;62.10
5346;DHT22;2695;49.444;11.054;2023-05-27T00:26:35;16.90;62.00
5346;DHT22;2695;49.444;11.054;2023-05-27T00:29:03;16.90;61.70
5346;DHT22;2695;49.444;11.054;2023-05-27T00:31:30;16.80;61.40
5346;DHT22;2695;49.444;11.054;2023-05-27T00:34:00;16.90;60.50
5346;DHT22;2695;49.444;11.054;2023-05-27T00:36:30;16.90;60.10
5346;DHT22;2695;49.444;11.054;2023-05-27T00:39:00;16.80;59.60
5346;DHT22;2695;49.444;11.054;2023-05-27T00:41:29;16.80;59.50
5346;DHT22;2695;49.444;11.054;2023-05-27T00:43:57;16.90;59.20
5346;DHT22;2695;49.444;11.054;2023-05-27T00:46:25;16.70;59.00
5346;DHT22;2695;49.444;11.054;2023-05-27T00:48:54;16.70;59.10
5346;DHT22;2695;49.444;11.054;2023-05-27T00:51:23;16.70;59.60
5346;DHT22;2695;49.444;11.054;2023-05-27T00:53:51;16.60;58.80
5346;DHT22;2695;49.444;11.054;2023-05-27T00:56:20;16.70;59.30
5346;DHT22;2695;49.444;11.054;2023-05-27T00:58:48;16.70;60.50
5346;DHT22;2695;49.444;11.054;2023-05-27T01:01:16;16.70;61.30
5346;DHT22;2695;49.444;11.054;2023-05-27T01:03:46;16.60;61.90
5346;DHT22;2695;49.444;11.054;2023-05-27T01:06:21;16.60;62.70
5346;DHT22;2695;49.444;11.054;2023-05-27T01:08:58;16.60;62.90
5346;DHT22;2695;49.444;11.054;2023-05-27T01:11:32;16.50;63.20
5346;DHT22;2695;49.444;11.054;2023-05-27T01:14:06;16.50;63.80
5346;DHT22;2695;49.444;11.054;2023-05-27T01:16:36;16.50;64.10
5346;DHT22;2695;49.444;11.054;2023-05-27T01:19:08;16.40;63.90
5346;DHT22;2695;49.444;11.054;2023-05-27T01:21:39;16.40;64.60
5346;DHT22;2695;49.444;11.054;2023-05-27T01:24:12;16.40;64.50
5346;DHT22;2695;49.444;11.054;2023-05-27T01:26:40;16.40;65.00
5346;DHT22;2695;49.444;11.054;2023-05-27T01:29:09;16.30;65.00
5346;DHT22;2695;49.444;11.054;2023-05-27T01:31:42;16.20;65.10
5346;DHT22;2695;49.444;11.054;2023-05-27T01:34:18;16.20;65.30
5346;DHT22;2695;49.444;11.054;2023-05-27T01:36:54;16.20;65.50
5346;DHT22;2695;49.444;11.054;2023-05-27T01:39:27;16.20;65.50
5346;DHT22;2695;49.444;11.054;2023-05-27T01:41:56;16.10;65.60
5346;DHT22;2695;49.444;11.054;2023-05-27T01:44:25;16.10;65.50
5346;DHT22;2695;49.444;11.054;2023-05-27T01:46:58;16.10;65.60
5346;DHT22;2695;49.444;11.054;2023-05-27T01:49:26;16.00;65.60
5346;DHT22;2695;49.444;11.054;2023-05-27T01:51:54;15.90;65.40
5346;DHT22;2695;49.444;11.054;2023-05-27T01:54:22;15.90;65.60
5346;DHT22;2695;49.444;11.054;2023-05-27T01:56:52;15.90;65.80
5346;DHT22;2695;49.444;11.054;2023-05-27T01:59:20;15.90;65.80
5346;DHT22;2695;49.444;11.054;2023-05-27T02:01:48;15.90;66.00
5346;DHT22;2695;49.444;11.054;2023-05-27T02:04:16;15.80;66.00
5346;DHT22;2695;49.444;11.054;2023-05-27T02:06:44;15.80;66.10
5346;DHT22;2695;49.444;11.054;2023-05-27T02:09:12;15.80;66.30
5346;DHT22;2695;49.444;11.054;2023-05-27T02:11:41;15.80;66.40
5346;DHT22;2695;49.444;11.054;2023-05-27T02:14:10;15.70;66.20
5346;DHT22;2695;49.444;11.054;2023-05-27T02:16:39;15.70;66.50
5346;DHT22;2695;49.444;11.054;2023-05-27T02:19:07;15.70;66.50
5346;DHT22;2695;49.444;11.054;2023-05-27T02:21:35;15.50;66.70
5346;DHT22;2695;49.444;11.054;2023-05-27T02:24:04;15.60;66.90
5346;DHT22;2695;49.444;11.054;2023-05-27T02:26:33;15.50;66.80
5346;DHT22;2695;49.444;11.054;2023-05-27T02:29:01;15.50;67.10
5346;DHT22;2695;49.444;11.054;2023-05-27T02:31:30;15.50;67.20
5346;DHT22;2695;49.444;11.054;2023-05-27T02:33:58;15.40;67.20
5346;DHT22;2695;49.444;11.054;2023-05-27T02:36:26;15.40;67.20
5346;DHT22;2695;49.444;11.054;2023-05-27T02:38:54;15.40;67.00
5346;DHT22;2695;49.444;11.054;2023-05-27T02:41:23;15.30;67.10
5346;DHT22;2695;49.444;11.054;2023-05-27T02:43:51;15.30;67.40
5346;DHT22;2695;49.444;11.054;2023-05-27T02:46:19;15.20;67.40
5346;DHT22;2695;49.444;11.054;2023-05-27T02:48:48;15.10;67.50
5346;DHT22;2695;49.444;11.054;2023-05-27T02:51:16;15.20;67.80
5346;DHT22;2695;49.444;11.054;2023-05-27T02:53:44;15.00;67.70
5346;DHT22;2695;49.444;11.054;2023-05-27T02:56:12;14.90;67.50
5346;DHT22;2695;49.444;11.054;2023-05-27T02:58:40;14.80;67.50
5346;DHT22;2695;49.444;11.054;2023-05-27T03:01:08;14.80;68.00
5346;DHT22;2695;49.444;11.054;2023-05-27T03:03:36;14.70;68.00
5346;DHT22;2695;49.444;11.054;2023-05-27T03:06:06;14.60;67.90
5346;DHT22;2695;49.444;11.054;2023-05-27T03:08:34;14.50;68.00
5346;DHT22;2695;49.444;11.054;2023-05-27T03:11:03;14.50;68.30
5346;DHT22;2695;49.444;11.054;2023-05-27T03:13:31;14.50;68.20
5346;DHT22;2695;49.444;11.054;2023-05-27T03:15:59;14.40;68.60
5346;DHT22;2695;49.444;11.054;2023-05-27T03:18:27;14.40;68.60
5346;DHT22;2695;49.444;11.054;2023-05-27T03:20:55;14.40;68.30
5346;DHT22;2695;49.444;11.054;2023-05-27T03:23:24;14.40;68.30
5346;DHT22;2695;49.444;11.054;2023-05-27T03:25:52;14.40;68.90
5346;DHT22;2695;49.444;11.054;2023-05-27T03:28:20;14.50;69.00
5346;DHT22;2695;49.444;11.054;2023-05-27T03:30:48;14.50;68.80
5346;DHT22;2695;49.444;11.054;2023-05-27T03:33:16;14.50;68.60
5346;DHT22;2695;49.444;11.054;2023-05-27T03:35:44;14.50;68.50
5346;DHT22;2695;49.444;11.054;2023-05-27T03:38:12;14.60;68.50
5346;DHT22;2695;49.444;11.054;2023-05-27T03:40:41;14.60;68.30
5346;DHT22;2695;49.444;11.054;2023-05-27T03:43:09;14.70;68.20
5346;DHT22;2695;49.444;11.054;2023-05-27T03:45:37;14.80;68.20
5346;DHT22;2695;49.444;11.054;2023-05-27T03:48:05;15.00;67.50
5346;DHT22;2695;49.444;11.054;2023-05-27T03:50:34;15.20;66.80
5346;DHT22;2695;49.444;11.054;2023-05-27T03:53:02;15.50;65.80
5346;DHT22;2695;49.444;11.054;2023-05-27T03:55:30;15.70;65.50
5346;DHT22;2695;49.444;11.054;2023-05-27T03:58:00;15.90;64.90
5346;DHT22;2695;49.444;11.054;2023-05-27T04:00:27;16.20;63.50
5346;DHT22;2695;49.444;11.054;2023-05-27T04:02:57;16.50;62.20
5346;DHT22;2695;49.444;11.054;2023-05-27T04:05:26;16.80;62.10
5346;DHT22;2695;49.444;11.054;2023-05-27T04:07:54;17.20;61.30
5346;DHT22;2695;49.444;11.054;2023-05-27T04:10:22;17.60;60.20
5346;DHT22;2695;49.444;11.054;2023-05-27T04:12:50;18.00;58.80
5346;DHT22;2695;49.444;11.054;2023-05-27T04:15:20;18.30;58.20
5346;DHT22;2695;49.444;11.054;2023-05-27T04:17:48;18.70;58.00
5346;DHT22;2695;49.444;11.054;2023-05-27T04:20:16;19.10;57.20
5346;DHT22;2695;49.444;11.054;2023-05-27T04:22:45;19.60;56.00
5346;DHT22;2695;49.444;11.054;2023-05-27T04:25:13;19.90;54.70
5346;DHT22;2695;49.444;11.054;2023-05-27T04:27:41;20.30;53.80
5346;DHT22;2695;49.444;11.054;2023-05-27T04:30:09;20.70;53.40
5346;DHT22;2695;49.444;11.054;2023-05-27T04:32:39;21.00;52.40
5346;DHT22;2695;49.444;11.054;2023-05-27T04:35:08;21.40;51.40
5346;DHT22;2695;49.444;11.054;2023-05-27T04:37:38;21.60;51.40
5346;DHT22;2695;49.444;11.054;2023-05-27T04:40:08;22.00;50.40
5346;DHT22;2695;49.444;11.054;2023-05-27T04:42:36;22.50;49.70
5346;DHT22;2695;49.444;11.054;2023-05-27T04:45:06;22.90;48.60
5346;DHT22;2695;49.444;11.054;2023-05-27T04:47:35;23.20;47.60
5346;DHT22;2695;49.444;11.054;2023-05-27T04:50:08;23.50;46.80
5346;DHT22;2695;49.444;11.054;2023-05-27T04:52:37;23.80;46.30
5346;DHT22;2695;49.444;11.054;2023-05-27T04:55:09;24.20;46.30
5346;DHT22;2695;49.444;11.054;2023-05-27T04:57:37;24.50;45.70
5346;DHT22;2695;49.444;11.054;2023-05-27T05:00:08;24.90;44.80
5346;DHT22;2695;49.444;11.054;2023-05-27T05:02:50;25.20;44.20
5346;DHT22;2695;49.444;11.054;2023-05-27T05:05:29;25.60;43.10
5346;DHT22;2695;49.444;11.054;2023-05-27T05:07:58;25.80;42.80
5346;DHT22;2695;49.444;11.054;2023-05-27T05:10:26;26.20;42.00
5346;DHT22;2695;49.444;11.054;2023-05-27T05:12:54;26.60;40.80
5346;DHT22;2695;49.444;11.054;2023-05-27T05:15:22;26.70;41.00
5346;DHT22;2695;49.444;11.054;2023-05-27T05:17:51;26.90;40.90
5346;DHT22;2695;49.444;11.054;2023-05-27T05:20:21;27.00;39.10
5346;DHT22;2695;49.444;11.054;2023-05-27T05:22:51;27.40;39.60
5346;DHT22;2695;49.444;11.054;2023-05-27T05:25:19;27.70;39.00
5346;DHT22;2695;49.444;11.054;2023-05-27T05:27:47;28.00;37.80
5346;DHT22;2695;49.444;11.054;2023-05-27T05:30:15;28.50;37.30
5346;DHT22;2695;49.444;11.054;2023-05-27T05:32:43;28.90;36.80
5346;DHT22;2695;49.444;11.054;2023-05-27T05:35:12;29.30;35.20
5346;DHT22;2695;49.444;11.054;2023-05-27T05:37:39;29.40;34.20
5346;DHT22;2695;49.444;11.054;2023-05-27T05:40:10;29.10;33.60
5346;DHT22;2695;49.444;11.054;2023-05-27T05:42:38;28.90;34.50
5346;DHT22;2695;49.444;11.054;2023-05-27T05:45:07;28.30;33.60
5346;DHT22;2695;49.444;11.054;2023-05-27T05:47:35;27.30;35.50
5346;DHT22;2695;49.444;11.054;2023-05-27T05:50:04;27.80;35.60
5346;DHT22;2695;49.444;11.054;2023-05-27T05:52:32;28.10;34.20
5346;DHT22;2695;49.444;11.054;2023-05-27T05:55:00;27.60;34.60
5346;DHT22;2695;49.444;11.054;2023-05-27T05:57:30;27.20;35.50
5346;DHT22;2695;49.444;11.054;2023-05-27T06:00:02;27.50;34.60
5346;DHT22;2695;49.444;11.054;2023-05-27T06:02:32;26.70;35.30
5346;DHT22;2695;49.444;11.054;2023-05-27T06:05:01;26.10;36.00
5346;DHT22;2695;49.444;11.054;2023-05-27T06:07:29;26.10;36.10
5346;DHT22;2695;49.444;11.054;2023-05-27T06:09:57;26.40;36.00
5346;DHT22;2695;49.444;11.054;2023-05-27T06:12:26;26.80;35.70
5346;DHT22;2695;49.444;11.054;2023-05-27T06:14:55;27.20;35.30
5346;DHT22;2695;49.444;11.054;2023-05-27T06:17:23;26.90;35.00
5346;DHT22;2695;49.444;11.054;2023-05-27T06:19:52;27.50;35.00
5346;DHT22;2695;49.444;11.054;2023-05-27T06:22:22;27.90;34.30
5346;DHT22;2695;49.444;11.054;2023-05-27T06:24:50;27.60;34.20
5346;DHT22;2695;49.444;11.054;2023-05-27T06:27:18;27.20;35.20
5346;DHT22;2695;49.444;11.054;2023-05-27T06:29:46;27.10;35.50
5346;DHT22;2695;49.444;11.054;2023-05-27T06:32:16;27.90;34.40
5346;DHT22;2695;49.444;11.054;2023-05-27T06:34:45;28.20;34.10
5346;DHT22;2695;49.444;11.054;2023-05-27T06:37:13;28.70;33.60
5346;DHT22;2695;49.444;11.054;2023-05-27T06:39:42;28.40;33.30
5346;DHT22;2695;49.444;11.054;2023-05-27T06:42:10;28.50;33.60
5346;DHT22;2695;49.444;11.054;2023-05-27T06:44:38;28.90;33.30
5346;DHT22;2695;49.444;11.054;2023-05-27T06:47:06;29.10;32.90
5346;DHT22;2695;49.444;11.054;2023-05-27T06:49:36;28.90;33.00
5346;DHT22;2695;49.444;11.054;2023-05-27T06:52:04;30.00;32.70
5346;DHT22;2695;49.444;11.054;2023-05-27T06:54:36;30.70;31.40
5346;DHT22;2695;49.444;11.054;2023-05-27T06:57:04;31.40;30.60
5346;DHT22;2695;49.444;11.054;2023-05-27T06:59:34;31.60;30.10
5346;DHT22;2695;49.444;11.054;2023-05-27T07:02:02;31.60;29.90
5346;DHT22;2695;49.444;11.054;2023-05-27T07:04:30;30.80;30.50
5346;DHT22;2695;49.444;11.054;2023-05-27T07:07:00;31.50;30.60
5346;DHT22;2695;49.444;11.054;2023-05-27T07:09:28;31.60;29.90
5346;DHT22;2695;49.444;11.054;2023-05-27T07:11:56;32.20;29.40
5346;DHT22;2695;49.444;11.054;2023-05-27T07:14:24;31.70;29.40
5346;DHT22;2695;49.444;11.054;2023-05-27T07:16:53;31.40;29.70
5346;DHT22;2695;49.444;11.054;2023-05-27T07:19:22;31.40;30.20
5346;DHT22;2695;49.444;11.054;2023-05-27T07:21:51;32.30;29.20
5346;DHT22;2695;49.444;11.054;2023-05-27T07:24:20;32.30;29.10
5346;DHT22;2695;49.444;11.054;2023-05-27T07:26:49;31.90;29.40
5346;DHT22;2695;49.444;11.054;2023-05-27T07:29:17;32.00;29.30
5346;DHT22;2695;49.444;11.054;2023-05-27T07:31:46;32.10;29.70
5346;DHT22;2695;49.444;11.054;2023-05-27T07:34:15;32.80;28.90
5346;DHT22;2695;49.444;11.054;2023-05-27T07:36:43;32.20;29.00
5346;DHT22;2695;49.444;11.054;2023-05-27T07:39:11;31.60;29.40
5346;DHT22;2695;49.444;11.054;2023-05-27T07:41:41;31.50;29.70
5346;DHT22;2695;49.444;11.054;2023-05-27T07:44:09;31.70;29.80
5346;DHT22;2695;49.444;11.054;2023-05-27T07:46:37;32.20;29.20
5346;DHT22;2695;49.444;11.054;2023-05-27T07:49:06;32.10;30.00
5346;DHT22;2695;49.444;11.054;2023-05-27T07:51:34;32.70;29.30
5346;DHT22;2695;49.444;11.054;2023-05-27T07:54:03;33.50;28.40
5346;DHT22;2695;49.444;11.054;2023-05-27T07:56:32;34.10;28.00
5346;DHT22;2695;49.444;11.054;2023-05-27T07:59:02;33.60;27.90
5346;DHT22;2695;49.444;11.054;2023-05-27T08:01:30;33.00;28.50
5346;DHT22;2695;49.444;11.054;2023-05-27T08:03:59;33.20;28.40
5346;DHT22;2695;49.444;11.054;2023-05-27T08:06:38;33.10;28.60
5346;DHT22;2695;49.444;11.054;2023-05-27T08:09:06;33.70;28.10
5346;DHT22;2695;49.444;11.054;2023-05-27T08:11:34;33.80;28.20
5346;DHT22;2695;49.444;11.054;2023-05-27T08:14:04;33.90;27.90
5346;DHT22;2695;49.444;11.054;2023-05-27T08:16:32;33.80;27.90
5346;DHT22;2695;49.444;11.054;2023-05-27T08:19:01;33.40;28.20
5346;DHT22;2695;49.444;11.054;2023-05-27T08:21:29;32.40;29.20
5346;DHT22;2695;49.444;11.054;2023-05-27T08:23:58;32.70;29.20
5346;DHT22;2695;49.444;11.054;2023-05-27T08:26:27;33.30;28.80
5346;DHT22;2695;49.444;11.054;2023-05-27T08:28:55;34.00;28.20
5346;DHT22;2695;49.444;11.054;2023-05-27T08:31:25;34.30;28.00
5346;DHT22;2695;49.444;11.054;2023-05-27T08:33:53;33.40;28.20
5346;DHT22;2695;49.444;11.054;2023-05-27T08:36:22;33.00;29.00
5346;DHT22;2695;49.444;11.054;2023-05-27T08:38:50;33.60;28.60
5346;DHT22;2695;49.444;11.054;2023-05-27T08:41:18;33.70;28.90
5346;DHT22;2695;49.444;11.054;2023-05-27T08:43:46;33.90;28.30
5346;DHT22;2695;49.444;11.054;2023-05-27T08:46:15;34.30;28.20
5346;DHT22;2695;49.444;11.054;2023-05-27T08:48:48;34.30;27.90
5346;DHT22;2695;49.444;11.054;2023-05-27T08:51:17;34.20;27.80
5346;DHT22;2695;49.444;11.054;2023-05-27T08:53:49;34.20;28.20
5346;DHT22;2695;49.444;11.054;2023-05-27T08:56:19;33.70;28.30
5346;DHT22;2695;49.444;11.054;2023-05-27T08:58:51;33.30;28.90
5346;DHT22;2695;49.444;11.054;2023-05-27T09:01:22;33.20;29.10
5346;DHT22;2695;49.444;11.054;2023-05-27T09:03:51;33.50;28.70
5346;DHT22;2695;49.444;11.054;2023-05-27T09:06:20;33.60;28.60
5346;DHT22;2695;49.444;11.054;2023-05-27T09:08:48;33.10;28.70
5346;DHT22;2695;49.444;11.054;2023-05-27T09:11:24;32.80;28.90
5346;DHT22;2695;49.444;11.054;2023-05-27T09:13:53;33.10;29.10
5346;DHT22;2695;49.444;11.054;2023-05-27T09:16:23;33.80;28.50
5346;DHT22;2695;49.444;11.054;2023-05-27T09:18:53;33.50;28.30
5346;DHT22;2695;49.444;11.054;2023-05-27T09:21:23;32.40;29.10
5346;DHT22;2695;49.444;11.054;2023-05-27T09:23:55;33.30;29.00
5346;DHT22;2695;49.444;11.054;2023-05-27T09:26:23;34.80;28.00
5346;DHT22;2695;49.444;11.054;2023-05-27T09:28:52;34.50;27.20
5346;DHT22;2695;49.444;11.054;2023-05-27T09:31:21;34.20;27.80
5346;DHT22;2695;49.444;11.054;2023-05-27T09:33:50;34.20;27.90
5346;DHT22;2695;49.444;11.054;2023-05-27T09:36:21;33.70;27.70
5346;DHT22;2695;49.444;11.054;2023-05-27T09:38:50;33.80;27.70
5346;DHT22;2695;49.444;11.054;2023-05-27T09:41:23;33.40;27.80
5346;DHT22;2695;49.444;11.054;2023-05-27T09:43:54;33.60;28.00
5346;DHT22;2695;49.444;11.054;2023-05-27T09:46:23;34.30;27.70
5346;DHT22;2695;49.444;11.054;2023-05-27T09:48:53;34.20;27.00
5346;DHT22;2695;49.444;11.054;2023-05-27T09:51:23;34.00;27.80
5346;DHT22;2695;49.444;11.054;2023-05-27T09:54:01;34.30;27.70
5346;DHT22;2695;49.444;11.054;2023-05-27T09:56:45;34.50;27.20
5346;DHT22;2695;49.444;11.054;2023-05-27T09:59:13;34.90;26.40
5346;DHT22;2695;49.444;11.054;2023-05-27T10:01:45;34.40;26.60
5346;DHT22;2695;49.444;11.054;2023-05-27T10:04:14;33.80;26.60
5346;DHT22;2695;49.444;11.054;2023-05-27T10:06:44;33.40;26.50
5346;DHT22;2695;49.444;11.054;2023-05-27T10:09:16;32.50;27.80
5346;DHT22;2695;49.444;11.054;2023-05-27T10:11:45;32.60;27.80
5346;DHT22;2695;49.444;11.054;2023-05-27T10:14:14;33.20;27.40
5346;DHT22;2695;49.444;11.054;2023-05-27T10:16:51;32.70;27.30
5346;DHT22;2695;49.444;11.054;2023-05-27T10:19:21;32.70;27.40
5346;DHT22;2695;49.444;11.054;2023-05-27T10:21:53;32.50;28.10
5346;DHT22;2695;49.444;11.054;2023-05-27T10:24:35;33.00;27.20
5346;DHT22;2695;49.444;11.054;2023-05-27T10:27:11;32.60;27.10
5346;DHT22;2695;49.444;11.054;2023-05-27T10:29:39;32.00;27.60
5346;DHT22;2695;49.444;11.054;2023-05-27T10:32:10;32.20;27.50
5346;DHT22;2695;49.444;11.054;2023-05-27T10:34:42;32.40;27.30
5346;DHT22;2695;49.444;11.054;2023-05-27T10:37:20;32.50;27.30
5346;DHT22;2695;49.444;11.054;2023-05-27T10:39:55;32.60;28.10
5346;DHT22;2695;49.444;11.054;2023-05-27T10:42:27;32.50;27.30
5346;DHT22;2695;49.444;11.054;2023-05-27T10:45:04;32.30;27.70
5346;DHT22;2695;49.444;11.054;2023-05-27T10:47:37;31.80;28.10
5346;DHT22;2695;49.444;11.054;2023-05-27T10:50:12;31.60;27.20
5346;DHT22;2695;49.444;11.054;2023-05-27T10:52:42;31.70;27.80
5346;DHT22;2695;49.444;11.054;2023-05-27T10:55:10;31.50;27.70
5346;DHT22;2695;49.444;11.054;2023-05-27T10:57:39;31.30;28.60
5346;DHT22;2695;49.444;11.054;2023-05-27T11:00:08;31.10;28.50
5346;DHT22;2695;49.444;11.054;2023-05-27T11:02:39;31.20;28.40
5346;DHT22;2695;49.444;11.054;2023-05-27T11:05:09;31.00;28.30
5346;DHT22;2695;49.444;11.054;2023-05-27T11:07:38;31.20;28.00
5346;DHT22;2695;49.444;11.054;2023-05-27T11:10:09;31.80;27.70
5346;DHT22;2695;49.444;11.054;2023-05-27T11:12:43;31.30;28.20
5346;DHT22;2695;49.444;11.054;2023-05-27T11:15:12;31.30;28.40
5346;DHT22;2695;49.444;11.054;2023-05-27T11:17:40;31.20;28.60
5346;DHT22;2695;49.444;11.054;2023-05-27T11:20:09;31.00;27.80
5346;DHT22;2695;49.444;11.054;2023-05-27T11:22:39;30.90;27.80
5346;DHT22;2695;49.444;11.054;2023-05-27T11:25:09;31.10;28.50
5346;DHT22;2695;49.444;11.054;2023-05-27T11:27:38;31.50;28.20
5346;DHT22;2695;49.444;11.054;2023-05-27T11:30:09;31.90;27.80
5346;DHT22;2695;49.444;11.054;2023-05-27T11:32:40;31.50;27.70
5346;DHT22;2695;49.444;11.054;2023-05-27T11:35:15;30.80;28.40
5346;DHT22;2695;49.444;11.054;2023-05-27T11:37:48;30.30;29.10
5346;DHT22;2695;49.444;11.054;2023-05-27T11:40:19;30.10;29.10
5346;DHT22;2695;49.444;11.054;2023-05-27T11:42:47;29.90;28.60
5346;DHT22;2695;49.444;11.054;2023-05-27T11:45:20;29.70;29.30
5346;DHT22;2695;49.444;11.054;2023-05-27T11:47:49;29.50;28.50
5346;DHT22;2695;49.444;11.054;2023-05-27T11:50:21;29.10;29.80
5346;DHT22;2695;49.444;11.054;2023-05-27T11:52:53;29.00;30.40
5346;DHT22;2695;49.444;11.054;2023-05-27T11:55:23;29.00;30.30
5346;DHT22;2695;49.444;11.054;2023-05-27T11:57:51;28.90;29.30
5346;DHT22;2695;49.444;11.054;2023-05-27T12:00:20;28.40;29.20
5346;DHT22;2695;49.444;11.054;2023-05-27T12:02:48;28.20;29.90
5346;DHT22;2695;49.444;11.054;2023-05-27T12:05:16;28.00;29.70
5346;DHT22;2695;49.444;11.054;2023-05-27T12:08:00;27.80;30.20
5346;DHT22;2695;49.444;11.054;2023-05-27T12:10:29;27.70;30.50
5346;DHT22;2695;49.444;11.054;2023-05-27T12:13:02;27.50;32.00
5346;DHT22;2695;49.444;11.054;2023-05-27T12:15:30;27.60;31.10
5346;DHT22;2695;49.444;11.054;2023-05-27T12:17:59;27.60;29.80
5346;DHT22;2695;49.444;11.054;2023-05-27T12:20:27;27.30;30.30
5346;DHT22;2695;49.444;11.054;2023-05-27T12:22:56;27.30;31.30
5346;DHT22;2695;49.444;11.054;2023-05-27T12:25:24;26.80;30.30
5346;DHT22;2695;49.444;11.054;2023-05-27T12:27:54;26.70;30.40
5346;DHT22;2695;49.444;11.054;2023-05-27T12:30:22;26.20;31.40
5346;DHT22;2695;49.444;11.054;2023-05-27T12:32:50;25.90;32.10
5346;DHT22;2695;49.444;11.054;2023-05-27T12:35:18;25.70;31.10
5346;DHT22;2695;49.444;11.054;2023-05-27T12:37:46;25.50;32.40
5346;DHT22;2695;49.444;11.054;2023-05-27T12:40:14;25.60;32.70
5346;DHT22;2695;49.444;11.054;2023-05-27T12:42:43;25.60;32.10
5346;DHT22;2695;49.444;11.054;2023-05-27T12:45:12;25.60;31.50
5346;DHT22;2695;49.444;11.054;2023-05-27T12:47:40;25.30;31.90
5346;DHT22;2695;49.444;11.054;2023-05-27T12:50:09;25.00;32.30
5346;DHT22;2695;49.444;11.054;2023-05-27T12:52:37;24.70;33.10
5346;DHT22;2695;49.444;11.054;2023-05-27T12:55:07;24.70;32.90
5346;DHT22;2695;49.444;11.054;2023-05-27T12:57:35;24.80;33.60
5346;DHT22;2695;49.444;11.054;2023-05-27T13:00:07;24.80;33.30
5346;DHT22;2695;49.444;11.054;2023-05-27T13:02:38;24.70;32.30
5346;DHT22;2695;49.444;11.054;2023-05-27T13:05:06;24.50;32.80
5346;DHT22;2695;49.444;11.054;2023-05-27T13:07:36;24.30;33.20
5346;DHT22;2695;49.444;11.054;2023-05-27T13:10:07;24.10;34.20
5346;DHT22;2695;49.444;11.054;2023-05-27T13:12:40;23.90;34.60
5346;DHT22;2695;49.444;11.054;2023-05-27T13:15:08;23.90;35.30
5346;DHT22;2695;49.444;11.054;2023-05-27T13:17:38;23.90;35.20
5346;DHT22;2695;49.444;11.054;2023-05-27T13:20:09;24.10;35.60
5346;DHT22;2695;49.444;11.054;2023-05-27T13:22:37;24.20;34.40
5346;DHT22;2695;49.444;11.054;2023-05-27T13:25:06;24.40;34.90
5346;DHT22;2695;49.444;11.054;2023-05-27T13:27:34;24.40;31.70
5346;DHT22;2695;49.444;11.054;2023-05-27T13:30:03;24.40;33.20
5346;DHT22;2695;49.444;11.054;2023-05-27T13:32:31;24.30;32.50
5346;DHT22;2695;49.444;11.054;2023-05-27T13:35:01;24.30;32.60
5346;DHT22;2695;49.444;11.054;2023-05-27T13:37:30;24.40;30.40
5346;DHT22;2695;49.444;11.054;2023-05-27T13:39:58;24.40;31.30
5346;DHT22;2695;49.444;11.054;2023-05-27T13:42:26;24.50;32.50
5346;DHT22;2695;49.444;11.054;2023-05-27T13:44:55;24.40;33.00
5346;DHT22;2695;49.444;11.054;2023-05-27T13:47:23;24.30;32.80
5346;DHT22;2695;49.444;11.054;2023-05-27T13:49:51;24.20;33.20
5346;DHT22;2695;49.444;11.054;2023-05-27T13:52:21;24.10;31.00
5346;DHT22;2695;49.444;11.054;2023-05-27T13:54:49;24.00;31.00
5346;DHT22;2695;49.444;11.054;2023-05-27T13:57:17;24.10;31.50
5346;DHT22;2695;49.444;11.054;2023-05-27T13:59:46;24.10;31.80
5346;DHT22;2695;49.444;11.054;2023-05-27T14:02:15;24.20;32.10
5346;DHT22;2695;49.444;11.054;2023-05-27T14:04:44;24.00;33.00
5346;DHT22;2695;49.444;11.054;2023-05-27T14:07:12;23.90;33.30
5346;DHT22;2695;49.444;11.054;2023-05-27T14:09:42;23.70;32.70
5346;DHT22;2695;49.444;11.054;2023-05-27T14:12:10;23.70;32.70
5346;DHT22;2695;49.444;11.054;2023-05-27T14:14:38;23.80;32.90
5346;DHT22;2695;49.444;11.054;2023-05-27T14:17:06;24.00;33.10
5346;DHT22;2695;49.444;11.054;2023-05-27T14:19:35;24.10;31.40
5346;DHT22;2695;49.444;11.054;2023-05-27T14:22:03;24.10;31.80
5346;DHT22;2695;49.444;11.054;2023-05-27T14:24:32;24.20;31.20
5346;DHT22;2695;49.444;11.054;2023-05-27T14:27:01;24.20;31.40
5346;DHT22;2695;49.444;11.054;2023-05-27T14:29:30;24.20;31.30
5346;DHT22;2695;49.444;11.054;2023-05-27T14:31:58;24.10;32.20
5346;DHT22;2695;49.444;11.054;2023-05-27T14:34:26;24.00;32.50
5346;DHT22;2695;49.444;11.054;2023-05-27T14:36:55;24.00;32.50
5346;DHT22;2695;49.444;11.054;2023-05-27T14:39:23;24.00;32.50
5346;DHT22;2695;49.444;11.054;2023-05-27T14:41:51;23.90;31.20
5346;DHT22;2695;49.444;11.054;2023-05-27T14:44:23;24.00;30.90
5346;DHT22;2695;49.444;11.054;2023-05-27T14:46:52;24.00;31.50
5346;DHT22;2695;49.444;11.054;2023-05-27T14:49:20;24.10;31.10
5346;DHT22;2695;49.444;11.054;2023-05-27T14:51:48;24.10;31.40
5346;DHT22;2695;49.444;11.054;2023-05-27T14:54:17;24.00;32.00
5346;DHT22;2695;49.444;11.054;2023-05-27T14:56:46;24.00;32.50
5346;DHT22;2695;49.444;11.054;2023-05-27T14:59:14;24.00;32.50
5346;DHT22;2695;49.444;11.054;2023-05-27T15:01:44;23.90;31.50
5346;DHT22;2695;49.444;11.054;2023-05-27T15:04:12;23.80;32.80
5346;DHT22;2695;49.444;11.054;2023-05-27T15:06:41;23.70;31.50
5346;DHT22;2695;49.444;11.054;2023-05-27T15:09:09;23.70;31.70
5346;DHT22;2695;49.444;11.054;2023-05-27T15:11:38;23.70;32.90
5346;DHT22;2695;49.444;11.054;2023-05-27T15:14:06;23.70;32.60
5346;DHT22;2695;49.444;11.054;2023-05-27T15:16:34;23.70;32.80
5346;DHT22;2695;49.444;11.054;2023-05-27T15:19:04;23.70;32.10
5346;DHT22;2695;49.444;11.054;2023-05-27T15:21:33;23.70;32.40
5346;DHT22;2695;49.444;11.054;2023-05-27T15:24:02;23.70;32.70
5346;DHT22;2695;49.444;11.054;2023-05-27T15:26:31;23.80;33.00
5346;DHT22;2695;49.444;11.054;2023-05-27T15:28:59;23.80;32.70
5346;DHT22;2695;49.444;11.054;2023-05-27T15:31:28;23.80;33.40
5346;DHT22;2695;49.444;11.054;2023-05-27T15:33:57;23.80;34.60
5346;DHT22;2695;49.444;11.054;2023-05-27T15:36:26;23.80;34.90
5346;DHT22;2695;49.444;11.054;2023-05-27T15:38:54;23.80;34.80
5346;DHT22;2695;49.444;11.054;2023-05-27T15:41:23;23.70;34.00
5346;DHT22;2695;49.444;11.054;2023-05-27T15:43:52;23.80;33.70
5346;DHT22;2695;49.444;11.054;2023-05-27T15:46:20;23.70;31.10
5346;DHT22;2695;49.444;11.054;2023-05-27T15:48:49;23.60;30.90
5346;DHT22;2695;49.444;11.054;2023-05-27T15:51:17;23.60;30.80
5346;DHT22;2695;49.444;11.054;2023-05-27T15:53:47;23.60;30.20
5346;DHT22;2695;49.444;11.054;2023-05-27T15:56:15;23.60;30.40
5346;DHT22;2695;49.444;11.054;2023-05-27T15:58:44;23.90;31.30